Time;durP1;ratioP1;P1;durP2;ratioP2;P2;SDS_P1;SDS_P2;PMS_P1;PMS_P2;Temp;Humidity;BMP_temperature;BMP_pressure;BME280_temperature;BME280_humidity;BME280_pressure;Samples;Min_cycle;Max_cycle;Signal;HPM_P1;HPM_P2
2022/08/12 00:44:31;;;;;;;;;9.33;9.00;;;;;22.09;51.94;101676.52;110260;1261;19051;-54
2022/08/12 00:46:58;;;;;;;;;10.33;10.00;;;;;21.97;52.25;101673.80;110395;1260;19546;-50
2022/08/12 00:49:25;;;;;;;;;10.00;10.00;;;;;21.98;52.26;101672.52;110421;1260;18475;-48
2022/08/12 00:52:11;;;;;;;;;10.00;10.00;;;;;22.05;52.38;101668.70;110473;1260;22432;-50
2022/08/12 00:54:38;;;;;;;;;10.67;10.00;;;;;22.10;52.23;101666.23;110592;1258;19488;-54
2022/08/12 00:57:06;;;;;;;;;10.33;10.00;;;;;22.06;52.02;101668.05;110676;1258;19283;-51
2022/08/12 00:59:33;;;;;;;;;11.00;10.33;;;;;22.21;51.90;101671.93;110389;1260;18933;-52
2022/08/12 01:02:00;;;;;;;;;9.00;9.00;;;;;22.21;51.90;101669.83;110604;1258;21361;-53
2022/08/12 01:12:42;;;;;;;;;12.00;12.00;;;;;22.15;52.44;101674.61;110767;1258;18984;-55
2022/08/12 01:15:09;;;;;;;;;11.00;11.00;;;;;22.18;52.21;101672.65;110679;1257;19137;-52
2022/08/12 01:17:37;;;;;;;;;11.00;11.00;;;;;22.04;52.29;101667.89;110705;1258;19679;-51
2022/08/12 01:20:04;;;;;;;;;14.33;13.00;;;;;22.12;52.24;101672.16;110421;1260;19020;-51
2022/08/12 01:22:32;;;;;;;;;10.00;10.00;;;;;22.06;52.31;101664.06;110721;1258;22776;-53
2022/08/12 01:24:59;;;;;;;;;10.67;10.67;;;;;22.15;52.17;101661.85;110793;1258;21157;-50
2022/08/12 01:27:27;;;;;;;;;12.00;12.00;;;;;22.20;52.17;101660.91;110657;1258;19208;-52
2022/08/12 01:29:54;;;;;;;;;12.00;11.00;;;;;22.28;52.09;101658.34;110690;1258;20334;-51
2022/08/12 01:32:22;;;;;;;;;12.00;11.00;;;;;22.15;52.41;101661.84;110509;1258;20116;-52
2022/08/12 01:34:50;;;;;;;;;15.33;14.33;;;;;22.03;52.78;101664.05;110499;1259;18807;-53
2022/08/12 01:37:17;;;;;;;;;11.00;11.00;;;;;21.90;52.97;101659.95;110724;1258;19299;-50
2022/08/12 01:39:45;;;;;;;;;16.00;13.00;;;;;21.95;52.83;101657.55;110482;1260;19675;-51
2022/08/12 01:42:12;;;;;;;;;14.33;14.00;;;;;21.88;52.91;101660.89;110444;1260;22242;-50
2022/08/12 01:44:40;;;;;;;;;14.00;12.50;;;;;21.93;53.01;101660.77;110451;1260;18965;-52
2022/08/12 01:47:07;;;;;;;;;15.00;13.67;;;;;21.99;53.04;101660.44;110531;1259;19544;-51
2022/08/12 01:49:35;;;;;;;;;16.00;13.00;;;;;22.12;52.77;101659.61;110698;1258;20533;-52
2022/08/12 01:52:03;;;;;;;;;15.00;14.50;;;;;22.09;52.66;101656.92;110784;1258;18770;-50
2022/08/12 01:54:30;;;;;;;;;16.00;15.00;;;;;22.07;52.88;101652.70;110792;1258;19537;-52
2022/08/12 01:56:58;;;;;;;;;19.33;18.00;;;;;22.17;52.65;101649.84;110596;1258;18744;-54
2022/08/12 02:02:10;;;;;;;;;19.67;19.67;;;;;21.89;53.13;101650.21;110620;1258;20407;-50
2022/08/12 02:12:53;;;;;;;;;21.33;18.00;;;;;21.76;53.41;101649.98;110787;1258;18809;-51
2022/08/12 02:15:22;;;;;;;;;16.50;16.50;;;;;21.65;53.77;101648.76;110691;1258;22271;-50
2022/08/12 02:17:49;;;;;;;;;15.00;15.00;;;;;21.57;53.90;101653.04;110732;1258;19748;-54
2022/08/12 02:20:16;;;;;;;;;20.00;18.00;;;;;21.56;54.10;101652.20;110755;1258;18737;-51
2022/08/12 02:22:44;;;;;;;;;15.00;14.00;;;;;21.50;54.00;101654.52;110750;1259;18875;-51
2022/08/12 02:25:11;;;;;;;;;15.33;14.00;;;;;21.48;53.96;101654.54;110735;1259;21919;-49
2022/08/12 02:27:39;;;;;;;;;11.00;11.00;;;;;21.55;53.59;101654.48;110468;1261;18709;-51
2022/08/12 02:30:07;;;;;;;;;13.00;10.33;;;;;21.61;53.55;101656.84;110679;1258;18734;-52
2022/08/12 02:32:34;;;;;;;;;13.00;13.00;;;;;21.53;53.65;101661.45;110693;1258;20529;-51
2022/08/12 02:35:02;;;;;;;;;13.33;12.33;;;;;21.48;53.62;101658.02;110727;1258;20272;-52
2022/08/12 02:37:29;;;;;;;;;10.00;10.00;;;;;21.58;53.44;101647.65;110591;1258;18980;-52
2022/08/12 02:39:56;;;;;;;;;14.33;14.00;;;;;21.74;53.02;101650.41;110444;1260;19490;-51
2022/08/12 02:42:24;;;;;;;;;13.67;13.00;;;;;21.69;53.14;101657.20;110417;1260;19024;-52
2022/08/12 02:44:51;;;;;;;;;18.00;13.00;;;;;21.57;53.59;101654.70;110672;1258;22332;-50
2022/08/12 02:47:19;;;;;;;;;13.00;13.00;;;;;21.67;53.36;101652.21;110726;1258;19619;-51
2022/08/12 02:49:46;;;;;;;;;14.00;13.00;;;;;21.56;53.59;101650.98;110419;1260;18807;-50
2022/08/12 02:52:14;;;;;;;;;10.00;10.00;;;;;21.42;53.90;101651.05;110744;1257;21758;-52
2022/08/12 02:54:42;;;;;;;;;12.33;11.67;;;;;21.42;53.93;101648.98;110768;1258;19519;-51
2022/08/12 02:57:12;;;;;;;;;11.00;11.00;;;;;21.42;53.62;101648.66;110717;1259;18776;-53
2022/08/12 02:59:39;;;;;;;;;13.00;11.67;;;;;21.55;53.35;101651.48;110770;1258;19189;-51
2022/08/12 03:02:07;;;;;;;;;11.00;10.00;;;;;21.62;53.19;101645.33;110651;1258;19629;-57
2022/08/12 03:04:34;;;;;;;;;13.00;10.33;;;;;21.53;53.49;101644.91;110636;1258;18783;-52
2022/08/12 03:07:01;;;;;;;;;11.00;11.00;;;;;21.59;53.18;101641.92;110483;1260;18901;-52
2022/08/12 03:09:28;;;;;;;;;14.00;13.67;;;;;21.60;53.15;101640.54;110633;1258;19557;-50
2022/08/12 03:11:56;;;;;;;;;13.00;12.33;;;;;21.76;52.55;101642.85;110388;1259;18712;-51
2022/08/12 03:14:23;;;;;;;;;13.00;13.00;;;;;21.66;52.89;101637.60;110418;1261;18787;-52
2022/08/12 03:16:50;;;;;;;;;15.00;14.00;;;;;21.66;52.62;101637.19;110425;1260;19795;-52
2022/08/12 03:19:18;;;;;;;;;11.67;11.67;;;;;21.67;52.64;101637.33;110731;1258;19107;-49
2022/08/12 03:21:46;;;;;;;;;11.00;10.33;;;;;21.51;53.00;101638.19;110462;1260;23485;-52
2022/08/12 03:24:14;;;;;;;;;11.00;11.00;;;;;21.39;53.09;101638.23;110467;1260;19483;-51
2022/08/12 03:26:41;;;;;;;;;10.50;10.50;;;;;21.30;53.39;101636.93;110712;1258;18901;-51
2022/08/12 03:29:08;;;;;;;;;13.33;13.00;;;;;21.26;53.54;101639.14;110719;1258;18778;-53
2022/08/12 03:31:36;;;;;;;;;20.00;18.00;;;;;21.19;53.66;101634.48;110424;1260;20159;-51
2022/08/12 03:34:03;;;;;;;;;22.00;18.00;;;;;21.09;53.85;101633.13;110783;1258;22038;-51
2022/08/12 03:36:30;;;;;;;;;28.67;23.00;;;;;21.01;54.42;101635.38;110719;1258;19115;-54
2022/08/12 03:39:19;;;;;;;;;25.50;23.50;;;;;21.07;54.37;101633.63;110674;1258;19520;-53
2022/08/12 03:41:48;;;;;;;;;18.00;17.00;;;;;21.28;54.23;101631.91;110404;1261;27525;-51
2022/08/12 04:00:46;;;;;;;;;15.00;14.00;;;;;21.35;53.71;101642.27;110764;1258;18818;-51
2022/08/12 04:05:55;;;;;;;;;15.00;13.33;;;;;21.25;53.82;101643.12;110659;1259;20042;-49
2022/08/12 04:08:22;;;;;;;;;14.33;13.00;;;;;21.39;53.56;101645.70;110692;1258;18654;-51
2022/08/12 04:13:34;;;;;;;;;24.33;22.00;;;;;21.75;52.85;101647.95;110535;1258;18977;-52
2022/08/12 04:16:02;;;;;;;;;23.33;21.33;;;;;21.73;52.59;101659.59;110445;1261;19209;-51
2022/08/12 04:18:29;;;;;;;;;27.67;24.00;;;;;21.77;52.32;101659.87;110446;1260;19620;-52
2022/08/12 04:20:56;;;;;;;;;26.00;23.00;;;;;21.88;52.22;101653.80;110750;1258;18800;-50
2022/08/12 04:23:24;;;;;;;;;22.00;20.00;;;;;21.99;51.86;101650.65;110677;1259;18910;-51
2022/08/12 04:25:51;;;;;;;;;33.67;29.67;;;;;22.04;51.76;101654.11;109435;1259;1550178;-52
2022/08/12 04:28:19;;;;;;;;;28.50;26.50;;;;;22.06;51.54;101660.06;110634;1258;18765;-51
2022/08/12 04:30:46;;;;;;;;;35.00;33.00;;;;;21.82;51.70;101659.02;110463;1260;18842;-51
2022/08/12 04:33:14;;;;;;;;;27.00;26.00;;;;;21.71;51.94;101664.02;110389;1260;22722;-50
2022/08/12 04:35:41;;;;;;;;;18.33;18.00;;;;;21.50;52.55;101667.98;110596;1258;18911;-50
2022/08/12 04:38:09;;;;;;;;;24.00;22.33;;;;;21.50;52.73;101672.35;110373;1261;19079;-53
2022/08/12 04:40:36;;;;;;;;;36.67;31.00;;;;;21.55;52.50;101672.52;110400;1261;21534;-51
2022/08/12 04:43:03;;;;;;;;;25.33;23.67;;;;;21.64;52.40;101664.51;110677;1258;18669;-52
2022/08/12 04:45:31;;;;;;;;;22.50;18.00;;;;;21.68;52.27;101661.63;110433;1260;20043;-51
2022/08/12 04:47:58;;;;;;;;;21.00;19.00;;;;;21.52;52.55;101663.39;110598;1258;23446;-51
2022/08/12 04:50:26;;;;;;;;;25.00;21.00;;;;;21.85;52.14;101668.79;110336;1261;18814;-49
2022/08/12 04:52:53;;;;;;;;;19.33;18.00;;;;;22.28;51.29;101662.85;110708;1258;18894;-51
2022/08/12 04:55:21;;;;;;;;;31.00;29.00;;;;;22.60;50.73;101661.49;110732;1258;19374;-54
2022/08/12 04:57:49;;;;;;;;;24.00;22.33;;;;;22.88;50.25;101664.89;110779;1258;22604;-51
2022/08/12 05:00:16;;;;;;;;;18.67;17.33;;;;;23.08;49.94;101663.71;110742;1258;21458;-52
2022/08/12 05:02:43;;;;;;;;;15.00;14.33;;;;;23.20;49.68;101662.61;110622;1258;19617;-53
2022/08/12 05:05:10;;;;;;;;;16.00;15.00;;;;;22.96;49.39;101665.95;110521;1258;18793;-49
2022/08/12 05:07:38;;;;;;;;;14.67;13.00;;;;;22.74;49.97;101670.78;110644;1258;18974;-49
2022/08/12 05:10:06;;;;;;;;;14.00;14.00;;;;;22.80;50.19;101668.16;110686;1259;21872;-51
2022/08/12 05:12:33;;;;;;;;;14.00;14.00;;;;;22.92;50.12;101662.07;110390;1260;19005;-50
2022/08/12 05:15:00;;;;;;;;;14.67;14.33;;;;;22.97;50.12;101665.35;110391;1260;22839;-51
2022/08/12 05:17:27;;;;;;;;;14.00;14.00;;;;;23.03;50.18;101663.63;110300;1260;21855;-54
2022/08/12 05:19:55;;;;;;;;;13.33;13.33;;;;;23.13;50.05;101659.38;110617;1258;18798;-46
2022/08/12 05:22:22;;;;;;;;;15.00;15.00;;;;;23.28;49.94;101653.67;110599;1258;21471;-52
2022/08/12 05:24:49;;;;;;;;;15.00;14.00;;;;;23.38;49.72;101656.95;110322;1260;19636;-50
2022/08/12 05:27:17;;;;;;;;;16.67;15.00;;;;;23.40;49.68;101658.23;110625;1258;18875;-52
2022/08/12 05:29:48;;;;;;;;;14.67;12.00;;;;;23.47;49.47;101656.15;110641;1258;20107;-55
2022/08/12 05:32:19;;;;;;;;;15.00;14.00;;;;;23.54;49.45;101647.86;110509;1258;19466;-52
2022/08/12 05:34:46;;;;;;;;;14.00;14.00;;;;;23.52;49.57;101644.97;110336;1261;19055;-50
2022/08/12 05:37:13;;;;;;;;;12.00;12.00;;;;;23.53;49.57;101641.83;110335;1260;18789;-48
2022/08/12 05:39:41;;;;;;;;;12.00;12.00;;;;;23.50;49.43;101642.60;110363;1260;19640;-52
2022/08/12 05:42:08;;;;;;;;;12.00;11.67;;;;;23.49;49.41;101639.91;110383;1260;22351;-50
2022/08/12 05:44:35;;;;;;;;;16.00;15.00;;;;;23.45;49.46;101644.33;110646;1258;18937;-52
2022/08/12 05:47:03;;;;;;;;;17.33;15.67;;;;;23.35;49.32;101646.52;110349;1260;21109;-50
2022/08/12 05:49:32;;;;;;;;;15.67;15.33;;;;;23.36;49.47;101650.58;110398;1260;18777;-50
2022/08/12 05:52:00;;;;;;;;;16.00;15.00;;;;;23.52;49.20;101647.18;110348;1261;18815;-50
2022/08/12 05:54:27;;;;;;;;;16.00;13.33;;;;;23.66;49.19;101645.27;110618;1258;19755;-52
2022/08/12 05:56:55;;;;;;;;;24.33;21.00;;;;;23.82;49.06;101649.03;110596;1258;20540;-51
2022/08/12 05:59:23;;;;;;;;;26.50;22.00;;;;;23.94;49.00;101655.33;110370;1260;18959;-51
2022/08/12 06:01:50;;;;;;;;;22.00;20.00;;;;;23.97;48.77;101652.23;110396;1261;22864;-52
2022/08/12 06:04:17;;;;;;;;;20.00;18.00;;;;;23.97;48.63;101650.66;110635;1259;18848;-54
2022/08/12 06:06:50;;;;;;;;;20.00;18.33;;;;;24.01;48.41;101645.04;110277;1260;19424;-53
2022/08/12 06:09:17;;;;;;;;;19.67;18.00;;;;;24.03;48.31;101646.17;110297;1259;19651;-52
2022/08/12 06:11:46;;;;;;;;;17.00;17.00;;;;;23.92;48.41;101648.48;110633;1258;18705;-50
2022/08/12 06:14:13;;;;;;;;;19.00;17.50;;;;;23.89;48.47;101650.04;110504;1258;18938;-49
2022/08/12 06:16:42;;;;;;;;;15.00;15.00;;;;;23.87;48.60;101648.81;110381;1259;19751;-52
2022/08/12 06:19:10;;;;;;;;;17.67;16.33;;;;;23.88;48.58;101649.86;110351;1258;18673;-52
2022/08/12 06:21:37;;;;;;;;;16.67;16.00;;;;;23.93;48.60;101645.65;110168;1261;18937;-49
2022/08/12 06:24:04;;;;;;;;;16.00;15.00;;;;;24.07;48.47;101642.75;110339;1258;19680;-48
2022/08/12 06:26:33;;;;;;;;;17.00;15.67;;;;;24.12;48.30;101643.25;110604;1258;18660;-51
2022/08/12 06:29:00;;;;;;;;;15.00;15.00;;;;;24.18;47.97;101634.70;110441;1258;22559;-50
2022/08/12 06:31:27;;;;;;;;;13.00;13.00;;;;;24.30;47.74;101641.70;110608;1258;19534;-49
2022/08/12 06:33:55;;;;;;;;;15.00;13.00;;;;;24.40;47.54;101643.11;110608;1259;18738;-51
2022/08/12 06:36:23;;;;;;;;;15.33;15.00;;;;;24.41;47.33;101641.30;110419;1260;19918;-51
2022/08/12 06:38:51;;;;;;;;;15.67;13.00;;;;;24.32;47.37;101640.15;110471;1258;22063;-51
2022/08/12 06:44:03;;;;;;;;;12.50;12.00;;;;;24.17;47.65;101637.14;110573;1258;19611;-52
2022/08/12 06:46:30;;;;;;;;;13.00;13.00;;;;;24.17;47.81;101635.39;110700;1258;20438;-50
2022/08/12 06:48:58;;;;;;;;;12.67;12.00;;;;;24.23;47.83;101637.72;110426;1260;18757;-55
2022/08/12 06:51:26;;;;;;;;;12.00;11.00;;;;;24.28;47.73;101634.07;110604;1258;18846;-54
2022/08/12 06:53:54;;;;;;;;;11.00;11.00;;;;;24.40;47.61;101635.27;110322;1260;20118;-53
2022/08/12 06:56:22;;;;;;;;;12.00;12.00;;;;;24.47;47.42;101639.14;110685;1258;20340;-50
2022/08/12 06:58:49;;;;;;;;;12.00;11.50;;;;;24.54;47.26;101642.97;110675;1258;19553;-52
2022/08/12 07:01:17;;;;;;;;;12.50;12.00;;;;;24.53;47.34;101640.64;110743;1258;20950;-50
2022/08/12 07:03:44;;;;;;;;;13.00;11.67;;;;;24.50;47.43;101640.88;110426;1261;18907;-53
2022/08/12 07:06:12;;;;;;;;;15.50;14.00;;;;;24.45;47.49;101639.42;110374;1260;19138;-53
2022/08/12 07:08:39;;;;;;;;;12.67;12.00;;;;;24.39;47.68;101640.28;110321;1259;19448;-50
2022/08/12 07:11:08;;;;;;;;;11.00;11.00;;;;;24.36;47.80;101638.09;110689;1258;18796;-50
2022/08/12 07:13:37;;;;;;;;;12.00;12.00;;;;;24.36;47.93;101642.27;110697;1258;18833;-54
2022/08/12 07:16:05;;;;;;;;;11.00;9.67;;;;;24.38;48.42;101640.28;110402;1260;19707;-53
2022/08/12 07:18:32;;;;;;;;;11.00;11.00;;;;;24.39;48.52;101636.89;110578;1258;18720;-49
2022/08/12 07:21:02;;;;;;;;;12.00;12.00;;;;;24.34;48.66;101636.45;110584;1258;18797;-53
2022/08/12 07:23:30;;;;;;;;;12.00;11.00;;;;;24.37;48.94;101635.21;110610;1258;19386;-52
2022/08/12 07:25:57;;;;;;;;;12.67;11.67;;;;;24.40;48.82;101631.94;110646;1258;19097;-52
2022/08/12 07:28:26;;;;;;;;;13.00;12.00;;;;;24.42;49.05;101629.75;110414;1260;19009;-50
2022/08/12 07:30:54;;;;;;;;;13.00;11.00;;;;;24.40;49.17;101630.00;110677;1258;19725;-49
2022/08/12 07:33:22;;;;;;;;;12.33;12.00;;;;;24.40;49.07;101624.98;110341;1260;18802;-50
2022/08/12 07:35:49;;;;;;;;;16.00;11.00;;;;;24.41;48.98;101623.86;110394;1261;22849;-50
2022/08/12 07:38:17;;;;;;;;;12.00;12.00;;;;;24.40;48.97;101621.29;110601;1258;19580;-50
2022/08/12 07:40:45;;;;;;;;;9.00;9.00;;;;;24.42;48.85;101618.89;110462;1258;21618;-50
2022/08/12 07:43:12;;;;;;;;;14.00;12.00;;;;;24.40;48.59;101617.15;110710;1259;19575;-49
2022/08/12 07:45:39;;;;;;;;;12.00;11.00;;;;;24.47;49.10;101617.98;110342;1260;19658;-52
2022/08/12 07:48:06;;;;;;;;;12.00;11.33;;;;;24.51;48.97;101621.92;110554;1258;19014;-54
2022/08/12 07:50:34;;;;;;;;;11.67;11.33;;;;;24.53;48.80;101614.52;110278;1261;22738;-52
2022/08/12 07:53:01;;;;;;;;;12.00;12.00;;;;;24.60;48.50;101612.91;110506;1258;19858;-51
2022/08/12 07:55:28;;;;;;;;;13.00;12.67;;;;;24.63;48.52;101612.25;110580;1258;20145;-51
2022/08/12 07:57:57;;;;;;;;;16.00;14.00;;;;;24.69;48.14;101613.17;110382;1260;18937;-51
2022/08/12 08:00:24;;;;;;;;;13.00;12.00;;;;;24.80;47.87;101613.91;110419;1260;19563;-51
2022/08/12 08:02:53;;;;;;;;;13.00;12.33;;;;;24.81;47.74;101617.77;110633;1259;18878;-53
2022/08/12 08:05:20;;;;;;;;;16.50;16.50;;;;;24.83;47.36;101613.20;110661;1258;19160;-52
2022/08/12 08:07:48;;;;;;;;;14.00;14.00;;;;;24.89;47.41;101615.79;110573;1259;19477;-52
2022/08/12 08:10:15;;;;;;;;;13.00;13.00;;;;;24.92;47.69;101615.73;110571;1258;21695;-50
2022/08/12 08:12:56;;;;;;;;;14.00;14.00;;;;;24.93;48.04;101613.09;110380;1261;18977;-50
2022/08/12 08:15:24;;;;;;;;;15.67;14.33;;;;;25.01;48.15;101618.09;110526;1259;19584;-50
2022/08/12 08:17:51;;;;;;;;;13.67;13.00;;;;;24.91;47.84;101619.30;110411;1258;18863;-53
2022/08/12 08:20:27;;;;;;;;;16.67;14.00;;;;;24.91;47.48;101618.55;110297;1261;23860;-54
2022/08/12 08:22:55;;;;;;;;;15.33;13.67;;;;;24.91;47.25;101621.40;110661;1258;19438;-50
2022/08/12 08:25:29;;;;;;;;;16.33;14.67;;;;;24.95;47.31;101622.37;110700;1258;18722;-50
2022/08/12 08:27:57;;;;;;;;;14.00;13.33;;;;;25.05;47.00;101619.48;110386;1260;19052;-51
2022/08/12 08:30:24;;;;;;;;;13.67;13.00;;;;;25.11;47.03;101627.04;110684;1258;19503;-50
2022/08/12 08:32:51;;;;;;;;;13.00;13.00;;;;;25.11;46.65;101624.30;110404;1260;18686;-52
2022/08/12 08:35:21;;;;;;;;;16.00;15.00;;;;;25.10;46.67;101631.50;110653;1258;22772;-50
2022/08/12 08:37:48;;;;;;;;;16.00;12.00;;;;;25.08;46.60;101628.42;110417;1260;19519;-54
2022/08/12 08:43:01;;;;;;;;;14.00;14.00;;;;;25.25;45.87;101627.91;110679;1259;19093;-50
2022/08/12 08:45:28;;;;;;;;;13.67;13.00;;;;;25.28;45.94;101629.90;110527;1258;20204;-50
2022/08/12 08:47:55;;;;;;;;;13.67;13.67;;;;;25.25;45.95;101629.88;110643;1258;23116;-51
2022/08/12 08:50:22;;;;;;;;;16.67;14.67;;;;;25.28;45.84;101623.06;110590;1259;18960;-52
2022/08/12 08:52:50;;;;;;;;;13.50;13.00;;;;;25.37;45.77;101619.31;110671;1258;19538;-53
2022/08/12 08:55:17;;;;;;;;;16.67;14.00;;;;;25.33;45.77;101618.88;110438;1260;18762;-52
2022/08/12 08:57:44;;;;;;;;;14.00;13.00;;;;;25.36;45.84;101620.11;110703;1259;18846;-55
2022/08/12 09:00:12;;;;;;;;;12.33;12.33;;;;;25.40;45.45;101621.90;110428;1260;19458;-53
2022/08/12 09:02:39;;;;;;;;;12.33;12.00;;;;;25.47;45.43;101620.59;110608;1258;18808;-50
2022/08/12 09:05:06;;;;;;;;;14.00;14.00;;;;;25.49;45.28;101617.40;110687;1258;20078;-52
2022/08/12 09:07:33;;;;;;;;;13.00;12.00;;;;;25.50;45.38;101617.20;110706;1258;19843;-52
2022/08/12 09:10:01;;;;;;;;;14.00;14.00;;;;;25.54;45.35;101617.91;110474;1261;22946;-52
2022/08/12 09:15:13;;;;;;;;;13.00;13.00;;;;;25.48;45.29;101619.59;110574;1258;21054;-51
2022/08/12 09:17:41;;;;;;;;;12.00;12.00;;;;;25.51;45.46;101616.88;110658;1258;18846;-50
2022/08/12 09:20:09;;;;;;;;;14.00;13.00;;;;;25.55;45.41;101615.25;110499;1258;22846;-50
2022/08/12 09:22:36;;;;;;;;;16.00;16.00;;;;;25.61;45.48;101611.34;110500;1259;23982;-50
2022/08/12 09:25:05;;;;;;;;;13.00;13.00;;;;;25.63;45.50;101618.08;110780;1257;18780;-52
2022/08/12 09:27:33;;;;;;;;;13.50;13.00;;;;;25.64;45.68;101617.12;110741;1258;18789;-52
2022/08/12 09:30:02;;;;;;;;;12.00;12.00;;;;;25.64;45.50;101614.03;110633;1258;20026;-53
2022/08/12 09:32:29;;;;;;;;;12.00;12.00;;;;;25.64;45.64;101614.91;110438;1260;18753;-51
2022/08/12 09:34:57;;;;;;;;;14.00;13.00;;;;;25.71;45.40;101614.61;110452;1258;23033;-51
2022/08/12 09:37:27;;;;;;;;;14.67;14.00;;;;;25.67;45.29;101616.66;110611;1258;21400;-52
2022/08/12 09:39:54;;;;;;;;;11.67;11.33;;;;;25.64;45.41;101612.98;110355;1261;18879;-47
2022/08/12 09:45:22;;;;;;;;;13.00;12.00;;;;;25.61;45.42;101608.47;110502;1258;20985;-51
2022/08/12 09:47:49;;;;;;;;;12.00;11.00;;;;;25.63;45.36;101607.98;110520;1258;19027;-50
2022/08/12 09:50:16;;;;;;;;;11.67;10.33;;;;;25.76;45.11;101605.02;110538;1258;18945;-52
2022/08/12 09:52:44;;;;;;;;;12.00;12.00;;;;;25.72;45.12;101604.92;110408;1260;19350;-52
2022/08/12 09:55:11;;;;;;;;;11.67;10.00;;;;;25.78;45.05;101605.91;110339;1260;21230;-53
2022/08/12 09:57:39;;;;;;;;;14.50;13.50;;;;;25.81;44.80;101602.73;110192;1260;18856;-52
2022/08/12 10:00:07;;;;;;;;;13.00;13.00;;;;;25.84;44.83;101604.69;110236;1258;19707;-51
2022/08/12 10:02:37;;;;;;;;;13.00;12.00;;;;;25.84;44.80;101600.37;110397;1258;20218;-51
2022/08/12 10:05:04;;;;;;;;;13.00;12.00;;;;;25.94;44.63;101599.97;110199;1260;18915;-50
2022/08/12 10:07:31;;;;;;;;;13.00;12.67;;;;;25.87;44.86;101597.66;110355;1261;21808;-52
2022/08/12 10:09:59;;;;;;;;;13.00;13.00;;;;;25.84;44.96;101593.61;110599;1259;20040;-51
2022/08/12 10:15:23;;;;;;;;;13.33;13.33;;;;;25.82;45.06;101588.48;110154;1264;19807;-50
2022/08/12 10:17:52;;;;;;;;;14.00;12.67;;;;;25.73;45.32;101587.40;110052;1264;18790;-51
2022/08/12 10:20:19;;;;;;;;;19.00;16.00;;;;;25.69;45.40;101578.26;110217;1264;19131;-53
2022/08/12 10:22:46;;;;;;;;;13.33;13.33;;;;;25.77;45.47;101579.41;110066;1264;22777;-50
2022/08/12 10:30:44;;;;;;;;;14.00;14.00;;;;;25.79;45.48;101555.52;110168;1264;19787;-51
2022/08/12 10:33:11;;;;;;;;;14.67;14.00;;;;;25.75;45.77;101553.68;110165;1264;19164;-49
2022/08/12 10:35:40;;;;;;;;;11.33;11.33;;;;;25.73;45.73;101559.52;110197;1264;18866;-52
2022/08/12 10:38:08;;;;;;;;;14.00;14.00;;;;;25.77;45.92;101555.58;110208;1264;19706;-50
2022/08/12 10:43:39;;;;;;;;;14.00;14.00;;;;;25.82;45.99;101554.94;110235;1263;18780;-50
2022/08/12 10:43:43;;;;;;;;;16.50;16.50;;;;;25.93;45.74;101551.82;110204;1264;19064;-51
2022/08/12 10:46:16;;;;;;;;;14.00;14.00;;;;;26.07;46.04;101546.93;110193;1264;19523;-51
2022/08/12 10:48:46;;;;;;;;;14.67;14.00;;;;;26.06;45.71;101547.25;110134;1264;18989;-51
2022/08/12 10:51:14;;;;;;;;;15.00;14.33;;;;;26.00;45.88;101543.83;110304;1260;18827;-53
2022/08/12 10:53:42;;;;;;;;;10.00;10.00;;;;;25.94;45.38;101536.86;110711;1258;19585;-52
2022/08/12 10:56:10;;;;;;;;;13.00;12.00;;;;;25.99;45.02;101534.44;110622;1258;18837;-52
2022/08/12 10:58:38;;;;;;;;;14.00;14.00;;;;;26.09;44.68;101537.19;110351;1260;18836;-51
2022/08/12 11:01:05;;;;;;;;;15.00;14.50;;;;;26.08;44.82;101538.85;110403;1260;19829;-49
2022/08/12 11:03:36;;;;;;;;;16.00;15.00;;;;;26.11;44.88;101535.08;110697;1258;20055;-54
2022/08/12 11:06:03;;;;;;;;;13.33;13.33;;;;;26.10;44.71;101532.29;110614;1258;27084;-50
2022/08/12 11:08:30;;;;;;;;;13.00;13.00;;;;;26.05;44.69;101529.86;110669;1258;19829;-50
2022/08/12 11:10:58;;;;;;;;;14.00;14.00;;;;;26.01;45.17;101528.42;110383;1260;18690;-51
2022/08/12 11:13:25;;;;;;;;;19.00;16.00;;;;;26.08;45.04;101536.40;110623;1258;18921;-53
2022/08/12 11:15:54;;;;;;;;;13.00;13.00;;;;;26.19;44.83;101530.91;110587;1258;19769;-49
2022/08/12 11:18:22;;;;;;;;;14.00;14.00;;;;;26.17;44.91;101529.58;110530;1258;20357;-51
2022/08/12 11:20:50;;;;;;;;;14.33;14.00;;;;;26.20;44.95;101531.77;110526;1259;18990;-54
2022/08/12 11:23:17;;;;;;;;;14.00;14.00;;;;;26.20;44.82;101531.95;110463;1258;20877;-51
2022/08/12 11:25:44;;;;;;;;;15.00;14.00;;;;;26.15;44.82;101527.99;110424;1260;18917;-50
2022/08/12 11:28:11;;;;;;;;;15.00;15.00;;;;;26.10;44.91;101530.42;110459;1260;18814;-53
2022/08/12 11:30:39;;;;;;;;;14.00;13.00;;;;;26.07;44.98;101524.60;110344;1260;21011;-52
2022/08/12 11:33:06;;;;;;;;;14.67;14.00;;;;;26.09;44.96;101531.31;110323;1260;18702;-50
2022/08/12 11:35:35;;;;;;;;;15.00;14.00;;;;;26.10;44.99;101531.56;110369;1260;18685;-47
2022/08/12 11:38:02;;;;;;;;;14.00;14.00;;;;;26.25;44.68;101524.65;110291;1260;19490;-57
2022/08/12 11:40:29;;;;;;;;;18.00;14.00;;;;;26.30;44.61;101518.30;110566;1258;18862;-51
2022/08/12 11:42:56;;;;;;;;;16.00;14.67;;;;;26.23;44.75;101515.33;110354;1260;19184;-51
2022/08/12 11:45:24;;;;;;;;;14.33;14.33;;;;;26.22;44.75;101511.20;110729;1258;19621;-52
2022/08/12 11:47:53;;;;;;;;;13.00;13.00;;;;;26.21;44.66;101515.83;110714;1258;18766;-51
2022/08/12 11:50:20;;;;;;;;;16.33;15.33;;;;;26.34;44.16;101509.04;110460;1260;18813;-52
2022/08/12 11:52:47;;;;;;;;;13.00;12.33;;;;;26.36;44.08;101503.96;110698;1258;22285;-52
2022/08/12 11:55:15;;;;;;;;;13.50;13.00;;;;;26.37;44.12;101494.23;110324;1261;18990;-52
2022/08/12 11:57:42;;;;;;;;;13.50;13.00;;;;;26.39;43.98;101499.93;110700;1258;18882;-51
2022/08/12 12:00:09;;;;;;;;;14.67;14.00;;;;;26.33;44.23;101504.64;110703;1258;19771;-50
2022/08/12 12:02:36;;;;;;;;;14.67;14.67;;;;;26.26;44.43;101497.97;110315;1258;19127;-52
2022/08/12 12:05:04;;;;;;;;;14.33;14.00;;;;;26.21;44.53;101498.13;110450;1259;22473;-52
2022/08/12 12:07:31;;;;;;;;;16.00;15.00;;;;;26.25;44.58;101499.48;110631;1258;19456;-52
2022/08/12 12:09:58;;;;;;;;;16.00;16.00;;;;;26.29;44.49;101500.34;110378;1260;22137;-52
2022/08/12 12:12:25;;;;;;;;;16.00;16.00;;;;;26.27;44.77;101498.95;110696;1258;18868;-52
2022/08/12 12:14:53;;;;;;;;;13.33;13.33;;;;;26.21;44.86;101494.45;110687;1258;19619;-52
2022/08/12 12:17:20;;;;;;;;;15.00;13.00;;;;;26.33;44.86;101495.92;110671;1258;18734;-53
2022/08/12 12:19:47;;;;;;;;;16.00;15.00;;;;;26.30;45.03;101506.55;110561;1258;18972;-53
2022/08/12 12:22:14;;;;;;;;;14.00;14.00;;;;;26.28;44.94;101499.31;110460;1260;19379;-50
2022/08/12 12:24:46;;;;;;;;;13.00;13.00;;;;;26.29;45.15;101497.61;110569;1258;22466;-49
2022/08/12 12:27:13;;;;;;;;;16.33;16.00;;;;;26.18;45.10;101491.13;110365;1260;18842;-52
2022/08/12 12:29:40;;;;;;;;;15.33;14.33;;;;;26.24;45.26;101490.73;110681;1258;19596;-53
2022/08/12 12:32:08;;;;;;;;;24.33;23.00;;;;;26.32;44.99;101492.54;110428;1258;18809;-52
2022/08/12 12:34:36;;;;;;;;;60.67;50.00;;;;;26.37;44.82;101482.45;110456;1258;19603;-55
2022/08/12 12:37:03;;;;;;;;;42.00;38.00;;;;;26.37;45.09;101481.75;110451;1260;22329;-54
2022/08/12 12:39:30;;;;;;;;;25.33;25.00;;;;;26.35;45.20;101480.69;110526;1258;18796;-52
2022/08/12 12:41:58;;;;;;;;;25.00;23.50;;;;;26.34;45.33;101479.91;110638;1258;21016;-51
2022/08/12 12:44:25;;;;;;;;;16.00;16.00;;;;;26.31;45.12;101480.65;110393;1259;19549;-51
2022/08/12 12:46:52;;;;;;;;;16.00;16.00;;;;;26.36;44.96;101481.80;110339;1260;18780;-52
2022/08/12 12:49:19;;;;;;;;;16.00;15.33;;;;;26.35;45.00;101485.09;110347;1260;18674;-52